グアム の空港の天気 - METARとTAF

グアム国際空港 ( PGUM / GUM ) - グアム ハガニア
飛行場実況気象(Metar)
観測時間09/24 21:54 ChST (09/24 11:54 UTC)
風向・風速東南東 2m/s
視程10km以上
天気現象
なし
気温26.7℃
湿度94%
気圧1013hPa
METARPGUM 241154Z 12004KT 10SM CLR 27/26 A2994 RMK AO2 SLP130 60001 70044 T02670256 10267 20261 51015
過去の天気等 Google飛行場航空写真 Wunderground天気予報

過去48時間のMETAR

飛行場予報(TAF)
発表時間: 9/24 21:20 ChST (9/24 11:20 UTC)
予報対象時間: 24日22時 ChST ~ 26日4時 ChST
風向・風速東南東 4m/s
視程10km以上
天気現象周辺でしゅう雨
全天の4割程度の雲 雲底高度 610m
全天の8割程度の雲 雲底高度 3,350m
全天を覆う雲 雲底高度 7,620m
PGUM 241120Z 2412/2518 12007KT P6SM VCSH SCT020 BKN110 OVC250